createdAt,value
2022-12-04T00:00:21.964Z,1012.6
2022-12-04T00:01:21.972Z,1012.6
2022-12-04T00:02:21.961Z,1012.6
2022-12-04T00:03:22.098Z,1012.7
2022-12-04T00:04:22.042Z,1012.6
2022-12-04T00:05:22.350Z,1012.7
2022-12-04T00:06:21.969Z,1012.7
2022-12-04T00:07:21.960Z,1012.7
2022-12-04T00:08:21.964Z,1012.7
2022-12-04T00:09:21.973Z,1012.7
2022-12-04T00:10:21.960Z,1012.7
2022-12-04T00:11:21.965Z,1012.7
2022-12-04T00:12:21.966Z,1012.6
2022-12-04T00:13:21.965Z,1012.6
2022-12-04T00:14:21.961Z,1012.7
2022-12-04T00:15:26.685Z,1012.6
2022-12-04T00:16:22.018Z,1012.7
2022-12-04T00:18:21.961Z,1012.6
2022-12-04T00:20:21.994Z,1012.6
2022-12-04T00:23:21.962Z,1012.6
2022-12-04T00:24:21.967Z,1012.7
2022-12-04T00:25:21.964Z,1012.6
2022-12-04T00:26:21.957Z,1012.6
2022-12-04T00:27:21.957Z,1012.6
2022-12-04T00:28:21.961Z,1012.6
2022-12-04T00:29:21.955Z,1012.6
2022-12-04T00:31:22.081Z,1012.7
2022-12-04T00:32:21.957Z,1012.6
2022-12-04T00:33:21.955Z,1012.6
2022-12-04T00:34:21.955Z,1012.6
2022-12-04T00:35:21.958Z,1012.6
2022-12-04T00:36:21.953Z,1012.6
2022-12-04T00:37:21.960Z,1012.6
2022-12-04T00:38:21.967Z,1012.6
2022-12-04T00:39:21.953Z,1012.6
2022-12-04T00:40:21.963Z,1012.6
2022-12-04T00:41:21.966Z,1012.5
2022-12-04T00:42:21.963Z,1012.6
2022-12-04T00:43:21.965Z,1012.6
2022-12-04T00:44:21.959Z,1012.6
2022-12-04T00:45:21.954Z,1012.5
2022-12-04T00:46:22.023Z,1012.5
2022-12-04T00:47:21.957Z,1012.5
2022-12-04T00:48:21.974Z,1012.5
2022-12-04T00:49:21.955Z,1012.5
2022-12-04T00:50:21.960Z,1012.5
2022-12-04T00:51:21.990Z,1012.5
2022-12-04T00:52:21.965Z,1012.5
2022-12-04T00:53:21.956Z,1012.5
2022-12-04T00:54:21.955Z,1012.5
2022-12-04T00:55:21.960Z,1012.5
2022-12-04T00:56:21.957Z,1012.5
2022-12-04T00:57:21.978Z,1012.5
2022-12-04T00:59:21.959Z,1012.4
2022-12-04T01:00:21.950Z,1012.5
2022-12-04T01:01:23.096Z,1012.4
2022-12-04T01:02:21.969Z,1012.5
2022-12-04T01:03:22.019Z,1012.5
2022-12-04T01:04:21.957Z,1012.5
2022-12-04T01:05:21.961Z,1012.4
2022-12-04T01:06:21.964Z,1012.4
2022-12-04T01:07:21.959Z,1012.4
2022-12-04T01:08:21.959Z,1012.4
2022-12-04T01:09:21.948Z,1012.5
2022-12-04T01:10:21.957Z,1012.4
2022-12-04T01:11:21.953Z,1012.5
2022-12-04T01:13:21.952Z,1012.5
2022-12-04T01:14:21.951Z,1012.5
2022-12-04T01:15:21.952Z,1012.5
2022-12-04T01:16:21.988Z,1012.5
2022-12-04T01:17:21.954Z,1012.5
2022-12-04T01:18:21.973Z,1012.5
2022-12-04T01:19:21.953Z,1012.4
2022-12-04T01:20:21.956Z,1012.5
2022-12-04T01:21:21.973Z,1012.4
2022-12-04T01:23:21.949Z,1012.5
2022-12-04T01:24:21.948Z,1012.4
2022-12-04T01:25:21.957Z,1012.4
2022-12-04T01:26:21.959Z,1012.4
2022-12-04T01:28:21.955Z,1012.4
2022-12-04T01:29:21.956Z,1012.5
2022-12-04T01:30:21.957Z,1012.5
2022-12-04T01:31:22.066Z,1012.5
2022-12-04T01:32:21.977Z,1012.5
2022-12-04T01:33:21.956Z,1012.5
2022-12-04T01:34:21.958Z,1012.5
2022-12-04T01:36:21.957Z,1012.5
2022-12-04T01:37:21.952Z,1012.4
2022-12-04T01:38:21.943Z,1012.4
2022-12-04T01:39:21.948Z,1012.4
2022-12-04T01:40:21.952Z,1012.4
2022-12-04T01:41:21.962Z,1012.5
2022-12-04T01:42:21.947Z,1012.4
2022-12-04T01:43:21.950Z,1012.5
2022-12-04T01:44:21.956Z,1012.5
2022-12-04T01:45:21.958Z,1012.5
2022-12-04T01:46:21.985Z,1012.5
2022-12-04T01:48:21.948Z,1012.6
2022-12-04T01:49:21.947Z,1012.5
2022-12-04T01:50:21.961Z,1012.5
2022-12-04T01:51:21.949Z,1012.5
2022-12-04T01:52:21.957Z,1012.5
2022-12-04T01:54:21.974Z,1012.5
2022-12-04T01:55:21.947Z,1012.5
2022-12-04T01:56:21.953Z,1012.5
2022-12-04T01:57:21.954Z,1012.6
2022-12-04T01:58:21.954Z,1012.5
2022-12-04T01:59:21.957Z,1012.5
2022-12-04T02:00:21.955Z,1012.5
2022-12-04T02:01:22.058Z,1012.5
2022-12-04T02:02:22.127Z,1012.5
2022-12-04T02:03:21.952Z,1012.5
2022-12-04T02:04:21.952Z,1012.5
2022-12-04T02:05:21.945Z,1012.5
2022-12-04T02:06:21.950Z,1012.5
2022-12-04T02:08:22.062Z,1012.5
2022-12-04T02:10:21.953Z,1012.4
2022-12-04T02:11:21.946Z,1012.4
2022-12-04T02:12:21.951Z,1012.4
2022-12-04T02:13:21.958Z,1012.4
2022-12-04T02:14:21.941Z,1012.4
2022-12-04T02:15:21.945Z,1012.4
2022-12-04T02:16:22.062Z,1012.4
2022-12-04T02:17:21.949Z,1012.3
2022-12-04T02:18:21.943Z,1012.3
2022-12-04T02:19:21.964Z,1012.3
2022-12-04T02:20:21.952Z,1012.3
2022-12-04T02:21:21.952Z,1012.3
2022-12-04T02:22:21.948Z,1012.3
2022-12-04T02:24:21.970Z,1012.3
2022-12-04T02:25:21.942Z,1012.3
2022-12-04T02:26:21.946Z,1012.3
2022-12-04T02:27:21.946Z,1012.3
2022-12-04T02:28:21.969Z,1012.2
2022-12-04T02:29:21.961Z,1012.2
2022-12-04T02:30:22.130Z,1012.2
2022-12-04T02:31:22.072Z,1012.2
2022-12-04T02:32:21.951Z,1012.2
2022-12-04T02:34:21.947Z,1012.2
2022-12-04T02:35:21.934Z,1012.2
2022-12-04T02:36:21.939Z,1012.2
2022-12-04T02:37:21.942Z,1012.2
2022-12-04T02:38:21.942Z,1012.2
2022-12-04T02:39:21.948Z,1012.2
2022-12-04T02:40:21.940Z,1012.3
2022-12-04T02:41:21.988Z,1012.2
2022-12-04T02:42:21.946Z,1012.2
2022-12-04T02:43:21.949Z,1012.2
2022-12-04T02:44:21.938Z,1012.3
2022-12-04T02:45:21.951Z,1012.2
2022-12-04T02:46:22.034Z,1012.3
2022-12-04T02:47:21.941Z,1012.2
2022-12-04T02:48:21.940Z,1012.3
2022-12-04T02:49:21.944Z,1012.2
2022-12-04T02:51:21.947Z,1012.2
2022-12-04T02:52:21.944Z,1012.2
2022-12-04T02:53:21.948Z,1012.2
2022-12-04T02:54:21.952Z,1012.2
2022-12-04T02:55:21.968Z,1012.2
2022-12-04T02:56:21.954Z,1012.2
2022-12-04T02:58:21.955Z,1012.2
2022-12-04T02:59:21.941Z,1012.1
2022-12-04T03:00:21.944Z,1012.2
2022-12-04T03:01:22.068Z,1012.2
2022-12-04T03:02:21.987Z,1012.1
2022-12-04T03:03:21.936Z,1012.2
2022-12-04T03:04:21.940Z,1012.2
2022-12-04T03:05:21.934Z,1012.2
2022-12-04T03:06:21.944Z,1012.2
2022-12-04T03:07:21.949Z,1012.1
2022-12-04T03:08:21.935Z,1012.1
2022-12-04T03:09:21.940Z,1012.2
2022-12-04T03:10:21.944Z,1012.2
2022-12-04T03:11:23.142Z,1012.2
2022-12-04T03:12:21.945Z,1012.1
2022-12-04T03:14:21.948Z,1012.2
2022-12-04T03:15:21.957Z,1012.2
2022-12-04T03:16:21.996Z,1012.2
2022-12-04T03:17:21.930Z,1012.2
2022-12-04T03:19:21.946Z,1012.2
2022-12-04T03:20:21.937Z,1012.2
2022-12-04T03:21:21.940Z,1012.2
2022-12-04T03:22:21.943Z,1012.2
2022-12-04T03:23:21.941Z,1012.2
2022-12-04T03:24:21.936Z,1012.2
2022-12-04T03:25:21.965Z,1012.2
2022-12-04T03:26:21.974Z,1012.2
2022-12-04T03:27:21.937Z,1012.2
2022-12-04T03:28:21.935Z,1012.2
2022-12-04T03:29:21.936Z,1012.2
2022-12-04T03:30:21.931Z,1012.2
2022-12-04T03:31:22.098Z,1012.2
2022-12-04T03:32:21.934Z,1012.2
2022-12-04T03:33:21.934Z,1012.2
2022-12-04T03:34:21.946Z,1012.2
2022-12-04T03:35:21.954Z,1012.3
2022-12-04T03:36:21.959Z,1012.2
2022-12-04T03:37:21.928Z,1012.2
2022-12-04T03:38:21.930Z,1012.2
2022-12-04T03:40:21.956Z,1012.2
2022-12-04T03:41:21.934Z,1012.3
2022-12-04T03:42:21.937Z,1012.2
2022-12-04T03:43:21.937Z,1012.2
2022-12-04T03:44:21.938Z,1012.2
2022-12-04T03:45:21.939Z,1012.2
2022-12-04T03:46:22.028Z,1012.3
2022-12-04T03:47:21.932Z,1012.3
2022-12-04T03:48:23.423Z,1012.3
2022-12-04T03:49:21.935Z,1012.3
2022-12-04T03:50:21.939Z,1012.3
2022-12-04T03:51:21.934Z,1012.2
2022-12-04T03:52:21.929Z,1012.2
2022-12-04T03:53:21.943Z,1012.3
2022-12-04T03:54:21.928Z,1012.3
2022-12-04T03:55:21.927Z,1012.3
2022-12-04T03:56:21.947Z,1012.3
2022-12-04T03:57:21.969Z,1012.3
2022-12-04T03:58:21.933Z,1012.3
2022-12-04T03:59:21.929Z,1012.3
2022-12-04T04:00:21.929Z,1012.3
2022-12-04T04:01:22.011Z,1012.2
2022-12-04T04:02:22.001Z,1012.2
2022-12-04T04:03:21.952Z,1012.2
2022-12-04T04:04:21.931Z,1012.2
2022-12-04T04:05:22.086Z,1012.2
2022-12-04T04:06:21.931Z,1012.2
2022-12-04T04:07:21.928Z,1012.2
2022-12-04T04:08:22.064Z,1012.1
2022-12-04T04:09:21.929Z,1012.1
2022-12-04T04:10:21.924Z,1012.2
2022-12-04T04:12:21.929Z,1012.2
2022-12-04T04:13:21.927Z,1012.2
2022-12-04T04:14:21.933Z,1012.2
2022-12-04T04:15:21.923Z,1012.2
2022-12-04T04:16:21.974Z,1012.2
2022-12-04T04:17:21.928Z,1012.2
2022-12-04T04:18:21.925Z,1012.2
2022-12-04T04:19:21.930Z,1012.2
2022-12-04T04:20:21.942Z,1012.2
2022-12-04T04:21:21.932Z,1012.1
2022-12-04T04:22:21.929Z,1012.1
2022-12-04T04:23:21.934Z,1012.1
2022-12-04T04:24:21.922Z,1012.2
2022-12-04T04:25:21.925Z,1012.1
2022-12-04T04:27:21.952Z,1012.1
2022-12-04T04:28:21.960Z,1012.2
2022-12-04T04:29:21.922Z,1012.1
2022-12-04T04:30:21.931Z,1012.2
2022-12-04T04:31:22.084Z,1012.2
2022-12-04T04:33:21.928Z,1012.2
2022-12-04T04:34:21.922Z,1012.1
2022-12-04T04:35:21.934Z,1012.2
2022-12-04T04:36:21.924Z,1012.2
2022-12-04T04:37:21.936Z,1012.2
2022-12-04T04:38:21.932Z,1012.3
2022-12-04T04:39:21.934Z,1012.3
2022-12-04T04:40:21.947Z,1012.2
2022-12-04T04:41:21.935Z,1012.3
2022-12-04T04:42:21.919Z,1012.2
2022-12-04T04:43:21.933Z,1012.3
2022-12-04T04:44:21.952Z,1012.3
2022-12-04T04:47:21.916Z,1012.3
2022-12-04T04:48:21.921Z,1012.3
2022-12-04T04:49:21.920Z,1012.2
2022-12-04T04:50:21.924Z,1012.3
2022-12-04T04:51:21.927Z,1012.2
2022-12-04T04:52:21.926Z,1012.2
2022-12-04T04:53:21.917Z,1012.2
2022-12-04T04:54:21.923Z,1012.2
2022-12-04T04:55:21.925Z,1012.2
2022-12-04T04:56:21.928Z,1012.2
2022-12-04T04:57:21.929Z,1012.2
2022-12-04T04:58:21.917Z,1012.2
2022-12-04T05:00:21.921Z,1012.2
2022-12-04T05:01:21.995Z,1012.2
2022-12-04T05:02:21.929Z,1012.3
2022-12-04T05:03:22.017Z,1012.2
2022-12-04T05:04:21.921Z,1012.2
2022-12-04T05:05:21.928Z,1012.2
2022-12-04T05:06:21.932Z,1012.2
2022-12-04T05:07:21.924Z,1012.2
2022-12-04T05:09:21.922Z,1012.1
2022-12-04T05:10:21.929Z,1012.2
2022-12-04T05:12:21.927Z,1012.2
2022-12-04T05:13:21.938Z,1012.2
2022-12-04T05:14:21.922Z,1012.2
2022-12-04T05:15:21.926Z,1012.2
2022-12-04T05:16:22.033Z,1012.1
2022-12-04T05:17:21.925Z,1012.1
2022-12-04T05:18:21.922Z,1012.1
2022-12-04T05:19:21.924Z,1012.1
2022-12-04T05:20:21.929Z,1012.1
2022-12-04T05:21:21.923Z,1012.1
2022-12-04T05:22:21.923Z,1012.1
2022-12-04T05:23:21.915Z,1012.1
2022-12-04T05:24:22.037Z,1012.1
2022-12-04T05:25:21.938Z,1012.1
2022-12-04T05:26:21.917Z,1012.1
2022-12-04T05:27:21.925Z,1012.1
2022-12-04T05:28:21.922Z,1012.1
2022-12-04T05:29:22.008Z,1012.1
2022-12-04T05:30:21.967Z,1012.1
2022-12-04T05:31:22.054Z,1012.1
2022-12-04T05:32:21.923Z,1012.1
2022-12-04T05:33:21.927Z,1012.1
2022-12-04T05:34:22.040Z,1012.1
2022-12-04T05:35:21.919Z,1012.1
2022-12-04T05:36:21.929Z,1012.1
2022-12-04T05:37:21.920Z,1012.2
2022-12-04T05:38:21.916Z,1012.1
2022-12-04T05:39:22.001Z,1012.1
2022-12-04T05:40:21.928Z,1012.1
2022-12-04T05:41:21.922Z,1012.1
2022-12-04T05:42:21.925Z,1012.1
2022-12-04T05:43:21.921Z,1012.1
2022-12-04T05:44:21.916Z,1012.1
2022-12-04T05:45:21.924Z,1012.1
2022-12-04T05:46:22.008Z,1012.1
2022-12-04T05:47:21.917Z,1012.1
2022-12-04T05:48:21.938Z,1012.1
2022-12-04T05:49:21.932Z,1012.1
2022-12-04T05:50:21.924Z,1012
2022-12-04T05:51:21.913Z,1012
2022-12-04T05:52:21.959Z,1012
2022-12-04T05:53:21.927Z,1012
2022-12-04T05:54:21.920Z,1012
2022-12-04T05:55:21.917Z,1012
2022-12-04T05:56:21.922Z,1012
2022-12-04T05:57:25.288Z,1012
2022-12-04T05:58:21.916Z,1012
2022-12-04T05:59:21.920Z,1012
2022-12-04T06:00:21.917Z,1012
2022-12-04T06:01:21.943Z,1012
2022-12-04T06:02:21.988Z,1012.1
2022-12-04T06:03:22.072Z,1012
2022-12-04T06:04:21.914Z,1012
2022-12-04T06:06:22.528Z,1011.9
2022-12-04T06:07:21.921Z,1012
2022-12-04T06:08:21.986Z,1012
2022-12-04T06:09:21.941Z,1012
2022-12-04T06:10:21.912Z,1012
2022-12-04T06:11:21.912Z,1012
2022-12-04T06:12:21.927Z,1012
2022-12-04T06:13:21.917Z,1012
2022-12-04T06:14:21.916Z,1012
2022-12-04T06:15:21.923Z,1012
2022-12-04T06:16:22.014Z,1012
2022-12-04T06:17:21.917Z,1012
2022-12-04T06:18:21.914Z,1012
2022-12-04T06:19:21.922Z,1012.1
2022-12-04T06:20:22.007Z,1012
2022-12-04T06:21:21.921Z,1012.1
2022-12-04T06:22:21.920Z,1012.1
2022-12-04T06:23:21.923Z,1012.1
2022-12-04T06:24:21.922Z,1012.1
2022-12-04T06:25:21.916Z,1012.1
2022-12-04T06:26:21.914Z,1012
2022-12-04T06:27:29.297Z,1012
2022-12-04T06:28:21.918Z,1012
2022-12-04T06:29:21.910Z,1012.1
2022-12-04T06:30:21.917Z,1012.1
2022-12-04T06:31:22.003Z,1012.1
2022-12-04T06:32:22.379Z,1012.1
2022-12-04T06:33:21.937Z,1012.1
2022-12-04T06:34:21.910Z,1012
2022-12-04T06:35:21.927Z,1012
2022-12-04T06:36:21.919Z,1012
2022-12-04T06:37:21.917Z,1012
2022-12-04T06:38:21.920Z,1012
2022-12-04T06:39:21.916Z,1012
2022-12-04T06:40:21.909Z,1012
2022-12-04T06:41:21.920Z,1012
2022-12-04T06:42:21.926Z,1012
2022-12-04T06:43:21.928Z,1012
2022-12-04T06:44:21.915Z,1012
2022-12-04T06:45:21.912Z,1012.1
2022-12-04T06:46:21.950Z,1012
2022-12-04T06:47:21.914Z,1012.1
2022-12-04T06:48:21.983Z,1012.1
2022-12-04T06:50:21.915Z,1012.1
2022-12-04T06:51:21.921Z,1012.1
2022-12-04T06:52:21.931Z,1012.1
2022-12-04T06:53:21.915Z,1012.1
2022-12-04T06:54:21.936Z,1012.1
2022-12-04T06:55:21.955Z,1012
2022-12-04T06:56:21.913Z,1012.1
2022-12-04T06:57:21.916Z,1012.1
2022-12-04T06:58:21.904Z,1012.2
2022-12-04T06:59:21.907Z,1012.1
2022-12-04T07:00:21.918Z,1012.2
2022-12-04T07:01:22.003Z,1012.1
2022-12-04T07:02:22.012Z,1012.1
2022-12-04T07:03:21.946Z,1012.1
2022-12-04T07:04:21.911Z,1012.1
2022-12-04T07:05:21.927Z,1012.1
2022-12-04T07:06:21.914Z,1012.2
2022-12-04T07:07:21.922Z,1012.1
2022-12-04T07:08:21.907Z,1012.1
2022-12-04T07:09:21.910Z,1012.2
2022-12-04T07:10:21.912Z,1012.1
2022-12-04T07:11:21.901Z,1012.2
2022-12-04T07:12:21.910Z,1012.1
2022-12-04T07:13:21.905Z,1012.1
2022-12-04T07:14:21.920Z,1012.1
2022-12-04T07:15:21.905Z,1012.1
2022-12-04T07:16:21.945Z,1012.1
2022-12-04T07:17:21.927Z,1012.1
2022-12-04T07:18:21.907Z,1012.2
2022-12-04T07:19:21.905Z,1012.2
2022-12-04T07:20:21.903Z,1012.2
2022-12-04T07:21:21.909Z,1012.3
2022-12-04T07:22:21.908Z,1012.2
2022-12-04T07:23:21.906Z,1012.2
2022-12-04T07:24:21.906Z,1012.2
2022-12-04T07:25:21.906Z,1012.2
2022-12-04T07:26:21.906Z,1012.3
2022-12-04T07:28:21.905Z,1012.3
2022-12-04T07:29:21.903Z,1012.3
2022-12-04T07:30:21.907Z,1012.3
2022-12-04T07:31:21.955Z,1012.2
2022-12-04T07:32:21.909Z,1012.3
2022-12-04T07:33:21.909Z,1012.2
2022-12-04T07:34:21.938Z,1012.2
2022-12-04T07:35:21.918Z,1012.3
2022-12-04T07:36:21.901Z,1012.3
2022-12-04T07:37:21.898Z,1012.3
2022-12-04T07:38:21.913Z,1012.2
2022-12-04T07:39:21.907Z,1012.2
2022-12-04T07:40:21.900Z,1012.3
2022-12-04T07:41:21.906Z,1012.3
2022-12-04T07:42:24.303Z,1012.3
2022-12-04T07:43:21.934Z,1012.3
2022-12-04T07:44:21.915Z,1012.3
2022-12-04T07:45:21.904Z,1012.3
2022-12-04T07:46:22.058Z,1012.3
2022-12-04T07:47:21.904Z,1012.3
2022-12-04T07:48:21.923Z,1012.3
2022-12-04T07:49:21.911Z,1012.3
2022-12-04T07:50:21.915Z,1012.4
2022-12-04T07:51:21.912Z,1012.4
2022-12-04T07:52:21.909Z,1012.4
2022-12-04T07:54:21.911Z,1012.3
2022-12-04T07:55:23.382Z,1012.3
2022-12-04T07:56:21.917Z,1012.4
2022-12-04T07:57:21.904Z,1012.4
2022-12-04T07:58:21.908Z,1012.4
2022-12-04T07:59:21.900Z,1012.4
2022-12-04T08:00:21.902Z,1012.4
2022-12-04T08:01:22.064Z,1012.4
2022-12-04T08:02:21.898Z,1012.4
2022-12-04T08:03:21.911Z,1012.4
2022-12-04T08:04:21.960Z,1012.4
2022-12-04T08:05:21.943Z,1012.3
2022-12-04T08:06:21.901Z,1012.3
2022-12-04T08:07:21.902Z,1012.4
2022-12-04T08:08:21.976Z,1012.4
2022-12-04T08:09:21.905Z,1012.4
2022-12-04T08:10:21.907Z,1012.5
2022-12-04T08:12:21.911Z,1012.4
2022-12-04T08:14:21.905Z,1012.3
2022-12-04T08:15:21.901Z,1012.4
2022-12-04T08:16:22.029Z,1012.4
2022-12-04T08:17:22.004Z,1012.4
2022-12-04T08:18:21.901Z,1012.4
2022-12-04T08:19:21.914Z,1012.4
2022-12-04T08:20:21.907Z,1012.4
2022-12-04T08:21:21.898Z,1012.4
2022-12-04T08:22:25.252Z,1012.4
2022-12-04T08:23:21.909Z,1012.4
2022-12-04T08:24:21.906Z,1012.4
2022-12-04T08:25:21.903Z,1012.4
2022-12-04T08:26:21.899Z,1012.4
2022-12-04T08:27:21.897Z,1012.4
2022-12-04T08:28:21.906Z,1012.4
2022-12-04T08:29:21.907Z,1012.4
2022-12-04T08:30:21.901Z,1012.5
2022-12-04T08:31:21.976Z,1012.4
2022-12-04T08:32:21.904Z,1012.5
2022-12-04T08:33:21.900Z,1012.5
2022-12-04T08:35:21.894Z,1012.5
2022-12-04T08:36:21.926Z,1012.4
2022-12-04T08:37:21.902Z,1012.5
2022-12-04T08:39:21.895Z,1012.5
2022-12-04T08:40:21.905Z,1012.5
2022-12-04T08:41:21.902Z,1012.6
2022-12-04T08:42:21.908Z,1012.5
2022-12-04T08:43:21.898Z,1012.4
2022-12-04T08:44:21.898Z,1012.5
2022-12-04T08:45:21.896Z,1012.4
2022-12-04T08:46:21.954Z,1012.4
2022-12-04T08:47:21.897Z,1012.4
2022-12-04T08:48:21.904Z,1012.4
2022-12-04T08:49:22.691Z,1012.5
2022-12-04T08:50:21.905Z,1012.5
2022-12-04T08:51:21.898Z,1012.5
2022-12-04T08:52:21.938Z,1012.4
2022-12-04T08:53:21.896Z,1012.5
2022-12-04T08:54:21.893Z,1012.4
2022-12-04T08:56:21.894Z,1012.5
2022-12-04T08:57:21.896Z,1012.4
2022-12-04T08:58:21.896Z,1012.4
2022-12-04T08:59:21.897Z,1012.5
2022-12-04T09:00:21.890Z,1012.5
2022-12-04T09:01:22.115Z,1012.5
2022-12-04T09:02:21.887Z,1012.5
2022-12-04T09:03:27.494Z,1012.5
2022-12-04T09:04:22.003Z,1012.5
2022-12-04T09:05:21.966Z,1012.5
2022-12-04T09:06:21.892Z,1012.5
2022-12-04T09:07:21.921Z,1012.6
2022-12-04T09:08:21.979Z,1012.5
2022-12-04T09:09:21.898Z,1012.5
2022-12-04T09:10:21.898Z,1012.6
2022-12-04T09:11:22.091Z,1012.5
2022-12-04T09:12:21.895Z,1012.5
2022-12-04T09:13:21.892Z,1012.5
2022-12-04T09:14:21.926Z,1012.6
2022-12-04T09:15:21.898Z,1012.5
2022-12-04T09:16:22.073Z,1012.6
2022-12-04T09:17:21.898Z,1012.6
2022-12-04T09:18:21.894Z,1012.6
2022-12-04T09:19:21.897Z,1012.5
2022-12-04T09:20:21.893Z,1012.6
2022-12-04T09:21:21.890Z,1012.6
2022-12-04T09:22:21.895Z,1012.5
2022-12-04T09:23:21.899Z,1012.5
2022-12-04T09:24:21.889Z,1012.5
2022-12-04T09:25:21.893Z,1012.5
2022-12-04T09:26:21.897Z,1012.5
2022-12-04T09:27:21.890Z,1012.5
2022-12-04T09:28:21.897Z,1012.5
2022-12-04T09:29:21.898Z,1012.6
2022-12-04T09:30:21.905Z,1012.4
2022-12-04T09:31:22.000Z,1012.5
2022-12-04T09:32:21.898Z,1012.6
2022-12-04T09:33:21.899Z,1012.6
2022-12-04T09:34:21.887Z,1012.7
2022-12-04T09:35:21.894Z,1012.6
2022-12-04T09:36:21.889Z,1012.6
2022-12-04T09:37:21.891Z,1012.6
2022-12-04T09:39:21.887Z,1012.5
2022-12-04T09:40:21.892Z,1012.5
2022-12-04T09:41:21.899Z,1012.5
2022-12-04T09:42:21.891Z,1012.5
2022-12-04T09:43:21.888Z,1012.5
2022-12-04T09:44:21.886Z,1012.5
2022-12-04T09:45:21.896Z,1012.5
2022-12-04T09:46:21.947Z,1012.5
2022-12-04T09:47:21.901Z,1012.5
2022-12-04T09:48:21.893Z,1012.4
2022-12-04T09:50:21.897Z,1012.5
2022-12-04T09:51:21.893Z,1012.5
2022-12-04T09:52:22.239Z,1012.5
2022-12-04T09:53:22.054Z,1012.4
2022-12-04T09:54:21.893Z,1012.5
2022-12-04T09:55:21.884Z,1012.3
2022-12-04T09:56:21.894Z,1012.3
2022-12-04T09:57:21.890Z,1012.3
2022-12-04T09:58:21.882Z,1012.3
2022-12-04T09:59:21.885Z,1012.3
2022-12-04T10:00:21.883Z,1012.3
2022-12-04T10:01:21.888Z,1012.3
2022-12-04T10:03:22.121Z,1012.4
2022-12-04T10:04:21.941Z,1012.4
2022-12-04T10:05:21.887Z,1012.3
2022-12-04T10:06:21.892Z,1012.3
2022-12-04T10:07:21.891Z,1012.4
2022-12-04T10:08:22.065Z,1012.4
2022-12-04T10:09:21.922Z,1012.4
2022-12-04T10:10:21.891Z,1012.3
2022-12-04T10:11:21.900Z,1012.4
2022-12-04T10:12:21.882Z,1012.4
2022-12-04T10:13:21.886Z,1012.4
2022-12-04T10:14:21.880Z,1012.4
2022-12-04T10:15:21.886Z,1012.3
2022-12-04T10:17:21.893Z,1012.4
2022-12-04T10:18:21.884Z,1012.4
2022-12-04T10:19:21.891Z,1012.4
2022-12-04T10:20:21.908Z,1012.3
2022-12-04T10:21:21.963Z,1012.3
2022-12-04T10:22:21.884Z,1012.4
2022-12-04T10:23:21.883Z,1012.4
2022-12-04T10:24:21.890Z,1012.4
2022-12-04T10:25:21.889Z,1012.4
2022-12-04T10:26:21.885Z,1012.4
2022-12-04T10:27:21.887Z,1012.4
2022-12-04T10:28:21.896Z,1012.4
2022-12-04T10:29:21.883Z,1012.4
2022-12-04T10:30:21.888Z,1012.4
2022-12-04T10:31:21.964Z,1012.4
2022-12-04T10:32:21.911Z,1012.3
2022-12-04T10:33:21.880Z,1012.4
2022-12-04T10:34:21.882Z,1012.3
2022-12-04T10:35:21.882Z,1012.4
2022-12-04T10:36:22.172Z,1012.4
2022-12-04T10:37:21.887Z,1012.3
2022-12-04T10:38:21.880Z,1012.4
2022-12-04T10:39:21.882Z,1012.3
2022-12-04T10:40:22.047Z,1012.3
2022-12-04T10:41:21.888Z,1012.4
2022-12-04T10:42:21.885Z,1012.3
2022-12-04T10:43:21.884Z,1012.3
2022-12-04T10:44:21.891Z,1012.3
2022-12-04T10:45:21.890Z,1012.2
2022-12-04T10:46:21.949Z,1012.3
2022-12-04T10:47:21.887Z,1012.5
2022-12-04T10:48:21.882Z,1012.3
2022-12-04T10:49:21.898Z,1012.3
2022-12-04T10:50:21.893Z,1012.3
2022-12-04T10:51:21.883Z,1012.3
2022-12-04T10:52:21.891Z,1012.3
2022-12-04T10:53:21.886Z,1012.3
2022-12-04T10:54:21.942Z,1012.2
2022-12-04T10:55:21.880Z,1012.2
2022-12-04T10:56:21.882Z,1012.2
2022-12-04T10:57:21.886Z,1012.2
2022-12-04T10:58:21.881Z,1012.2
2022-12-04T10:59:21.880Z,1012.2
2022-12-04T11:00:21.880Z,1012.2
2022-12-04T11:01:22.028Z,1012.1
2022-12-04T11:02:22.002Z,1012.1
2022-12-04T11:03:21.951Z,1012.1
2022-12-04T11:04:21.882Z,1012.1
2022-12-04T11:05:21.881Z,1012
2022-12-04T11:06:21.911Z,1012
2022-12-04T11:07:21.887Z,1012
2022-12-04T11:08:21.898Z,1012
2022-12-04T11:09:21.877Z,1012
2022-12-04T11:10:21.872Z,1012.1
2022-12-04T11:11:21.916Z,1012
2022-12-04T11:12:21.877Z,1012.1
2022-12-04T11:13:21.878Z,1012
2022-12-04T11:14:21.885Z,1012.1
2022-12-04T11:15:21.881Z,1012
2022-12-04T11:16:21.957Z,1012
2022-12-04T11:17:21.881Z,1012
2022-12-04T11:18:21.879Z,1012
2022-12-04T11:19:21.879Z,1011.9
2022-12-04T11:20:21.893Z,1011.9
2022-12-04T11:21:21.877Z,1011.9
2022-12-04T11:22:21.880Z,1011.9
2022-12-04T11:23:21.883Z,1011.9
2022-12-04T11:24:21.877Z,1011.8
2022-12-04T11:25:21.888Z,1011.8
2022-12-04T11:26:21.868Z,1011.8
2022-12-04T11:27:21.878Z,1011.8
2022-12-04T11:28:40.645Z,1011.8
2022-12-04T11:29:21.878Z,1011.8
2022-12-04T11:30:21.878Z,1011.8
2022-12-04T11:31:21.946Z,1011.8
2022-12-04T11:32:22.510Z,1011.7
2022-12-04T11:34:21.873Z,1011.7
2022-12-04T11:35:21.868Z,1011.7
2022-12-04T11:36:21.876Z,1011.6
2022-12-04T11:37:21.878Z,1011.7
2022-12-04T11:38:21.882Z,1011.6
2022-12-04T11:39:21.877Z,1011.6
2022-12-04T11:40:21.874Z,1011.6
2022-12-04T11:41:21.878Z,1011.6
2022-12-04T11:42:21.904Z,1011.6
2022-12-04T11:43:21.873Z,1011.6
2022-12-04T11:44:21.870Z,1011.6
2022-12-04T11:45:21.885Z,1011.6
2022-12-04T11:46:21.910Z,1011.6
2022-12-04T11:47:21.908Z,1011.7
2022-12-04T11:48:21.885Z,1011.6
2022-12-04T11:49:21.876Z,1011.6
2022-12-04T11:50:21.875Z,1011.6
2022-12-04T11:51:21.870Z,1011.6
2022-12-04T11:52:21.871Z,1011.6
2022-12-04T11:53:21.872Z,1011.6
2022-12-04T11:54:22.318Z,1011.6
2022-12-04T11:55:28.331Z,1011.5
2022-12-04T11:56:21.876Z,1011.5
2022-12-04T11:57:21.869Z,1011.5
2022-12-04T11:58:21.869Z,1011.5
2022-12-04T11:59:21.890Z,1011.5
2022-12-04T12:00:21.881Z,1011.5
2022-12-04T12:01:21.880Z,1011.5
2022-12-04T12:02:22.018Z,1011.6
2022-12-04T12:03:22.072Z,1011.5
2022-12-04T12:04:21.891Z,1011.5
2022-12-04T12:05:21.891Z,1011.5
2022-12-04T12:06:21.872Z,1011.5
2022-12-04T12:07:21.872Z,1011.5
2022-12-04T12:08:21.891Z,1011.6
2022-12-04T12:09:21.939Z,1011.5
2022-12-04T12:10:21.899Z,1011.5
2022-12-04T12:11:21.873Z,1011.5
2022-12-04T12:12:21.876Z,1011.5
2022-12-04T12:13:21.913Z,1011.6
2022-12-04T12:14:21.869Z,1011.5
2022-12-04T12:16:21.970Z,1011.5
2022-12-04T12:17:21.877Z,1011.6
2022-12-04T12:18:22.502Z,1011.5
2022-12-04T12:19:21.878Z,1011.5
2022-12-04T12:20:21.876Z,1011.5
2022-12-04T12:21:21.906Z,1011.5
2022-12-04T12:22:21.876Z,1011.4
2022-12-04T12:23:21.876Z,1011.4
2022-12-04T12:24:21.877Z,1011.4
2022-12-04T12:25:21.875Z,1011.4
2022-12-04T12:26:21.873Z,1011.4
2022-12-04T12:27:21.887Z,1011.4
2022-12-04T12:28:21.875Z,1011.4
2022-12-04T12:29:21.876Z,1011.5
2022-12-04T12:30:21.872Z,1011.5
2022-12-04T12:31:21.959Z,1011.5
2022-12-04T12:33:21.866Z,1011.5
2022-12-04T12:34:21.872Z,1011.5
2022-12-04T12:35:21.894Z,1011.5
2022-12-04T12:36:21.882Z,1011.4
2022-12-04T12:37:21.871Z,1011.5
2022-12-04T12:38:21.874Z,1011.5
2022-12-04T12:40:21.945Z,1011.4
2022-12-04T12:41:21.870Z,1011.4
2022-12-04T12:42:21.883Z,1011.4
2022-12-04T12:43:21.956Z,1011.5
2022-12-04T12:44:21.896Z,1011.4
2022-12-04T12:45:21.877Z,1011.4
2022-12-04T12:46:21.982Z,1011.4
2022-12-04T12:47:21.870Z,1011.4
2022-12-04T12:48:21.870Z,1011.4
2022-12-04T12:49:21.869Z,1011.4
2022-12-04T12:50:21.876Z,1011.4
2022-12-04T12:51:30.523Z,1011.4
2022-12-04T12:52:21.873Z,1011.4
2022-12-04T12:53:21.874Z,1011.4
2022-12-04T12:54:21.879Z,1011.4
2022-12-04T12:55:21.968Z,1011.4
2022-12-04T12:56:21.866Z,1011.4
2022-12-04T12:57:21.904Z,1011.3
2022-12-04T12:58:21.867Z,1011.3
2022-12-04T12:59:21.884Z,1011.3
2022-12-04T13:00:21.879Z,1011.4
2022-12-04T13:01:21.985Z,1011.3
2022-12-04T13:02:21.907Z,1011.3
2022-12-04T13:03:21.872Z,1011.3
2022-12-04T13:04:21.867Z,1011.2
2022-12-04T13:06:21.871Z,1011.2
2022-12-04T13:07:21.881Z,1011.2
2022-12-04T13:08:21.987Z,1011.2
2022-12-04T13:09:21.866Z,1011.2
2022-12-04T13:10:21.886Z,1011.1
2022-12-04T13:11:21.868Z,1011.2
2022-12-04T13:12:21.877Z,1011.1
2022-12-04T13:13:21.871Z,1011.1
2022-12-04T13:14:21.870Z,1011.1
2022-12-04T13:15:21.981Z,1011.1
2022-12-04T13:16:21.926Z,1011.1
2022-12-04T13:17:21.861Z,1011.1
2022-12-04T13:18:21.876Z,1011.1